Time;durP1;ratioP1;P1;durP2;ratioP2;P2;SDS_P1;SDS_P2;PMS_P1;PMS_P2;Temp;Humidity;BMP_temperature;BMP_pressure;BME280_temperature;BME280_humidity;BME280_pressure;Samples;Min_cycle;Max_cycle;Signal;HPM_P1;HPM_P2
2023/02/25 00:02:23;;;;;;;;;;;;;;;;;;4975159;28;20482;-67
2023/02/25 00:04:52;;;;;;;;;;;;;;;;;;4975848;28;20348;-67
2023/02/25 00:07:21;;;;;;;;;;;;;;;;;;4976919;28;19960;-67
2023/02/25 00:09:49;;;;;;;;;;;;;;;;;;4968347;28;19925;-67
2023/02/25 00:12:17;;;;;;;;;;;;;;;;;;4958871;28;19960;-66
2023/02/25 00:14:42;;;;;;;;;;;;;;;;;;4977511;28;20083;-66
2023/02/25 00:17:07;;;;;;;;;;;;;;;;;;4965913;28;20377;-67
2023/02/25 00:19:35;;;;;;;;;;;;;;;;;;4988343;28;20336;-66
2023/02/25 00:22:03;;;;;;;;;;;;;;;;;;4995901;28;20032;-67
2023/02/25 00:24:31;;;;;;;;;;;;;;;;;;4995648;28;19918;-66
2023/02/25 00:26:56;;;;;;;;;;;;;;;;;;4976483;28;20630;-67
2023/02/25 00:29:22;;;;;;;;;;;;;;;;;;4980618;28;20227;-67
2023/02/25 00:31:52;;;;;;;;;;;;;;;;;;4974083;28;19960;-67
2023/02/25 00:34:17;;;;;;;;;;;;;;;;;;4978274;28;19921;-67
2023/02/25 00:36:45;;;;;;;;;;;;;;;;;;4960319;28;19928;-67
2023/02/25 00:39:11;;;;;;;;;;;;;;;;;;4958480;28;19925;-67
2023/02/25 00:41:41;;;;;;;;;;;;;;;;;;4979751;28;19924;-67
2023/02/25 00:44:07;;;;;;;;;;;;;;;;;;4957343;28;19921;-67
2023/02/25 00:46:35;;;;;;;;;;;;;;;;;;4991532;28;19922;-67
2023/02/25 00:49:02;;;;;;;;;;;;;;;;;;4991108;28;19927;-67
2023/02/25 00:51:28;;;;;;;;;;;;;;;;;;4964295;28;20317;-67
2023/02/25 00:53:55;;;;;;;;;;;;;;;;;;4984293;28;19917;-67
2023/02/25 00:56:24;;;;;;;;;;;;;;;;;;4959646;28;20000;-67
2023/02/25 00:58:49;;;;;;;;;;;;;;;;;;4976340;28;20107;-66
2023/02/25 01:01:14;;;;;;;;;;;;;;;;;;4952889;28;19921;-67
2023/02/25 01:03:40;;;;;;;;;;;;;;;;;;4976532;28;19956;-67
2023/02/25 01:06:05;;;;;;;;;;;;;;;;;;4997193;28;19971;-68
2023/02/25 01:08:30;;;;;;;;;;;;;;;;;;4972855;28;20016;-68
2023/02/25 01:10:58;;;;;;;;;;;;;;;;;;4962683;28;20054;-68
2023/02/25 01:13:26;;;;;;;;;;;;;;;;;;4977685;28;19990;-67
2023/02/25 01:15:53;;;;;;;;;;;;;;;;;;4978806;28;19922;-67
2023/02/25 01:18:20;;;;;;;;;;;;;;;;;;4983547;28;19929;-69
2023/02/25 01:20:47;;;;;;;;;;;;;;;;;;4981577;28;20312;-67
2023/02/25 01:23:13;;;;;;;;;;;;;;;;;;4965536;28;19922;-66
2023/02/25 01:25:41;;;;;;;;;;;;;;;;;;4988377;28;20868;-66
2023/02/25 01:28:06;;;;;;;;;;;;;;;;;;4974802;28;20176;-67
2023/02/25 01:30:32;;;;;;;;;;;;;;;;;;4960735;28;19917;-66
2023/02/25 01:32:57;;;;;;;;;;;;;;;;;;4978999;28;19936;-67
2023/02/25 01:35:25;;;;;;;;;;;;;;;;;;4984045;28;19959;-67
2023/02/25 01:37:54;;;;;;;;;;;;;;;;;;4973632;28;20008;-67
2023/02/25 01:40:22;;;;;;;;;;;;;;;;;;4969560;28;20716;-67
2023/02/25 01:42:48;;;;;;;;;;;;;;;;;;4954239;28;19921;-66
2023/02/25 01:45:14;;;;;;;;;;;;;;;;;;4974418;28;19918;-67
2023/02/25 01:47:42;;;;;;;;;;;;;;;;;;4948066;28;19973;-67
2023/02/25 01:50:09;;;;;;;;;;;;;;;;;;4958528;28;19929;-68
2023/02/25 01:52:35;;;;;;;;;;;;;;;;;;4964249;28;19921;-67
2023/02/25 01:55:00;;;;;;;;;;;;;;;;;;4977519;28;20560;-67
2023/02/25 01:57:25;;;;;;;;;;;;;;;;;;4962576;28;19925;-67
2023/02/25 01:59:51;;;;;;;;;;;;;;;;;;4977859;28;19945;-66
2023/02/25 02:02:16;;;;;;;;;;;;;;;;;;4995283;28;19943;-68
2023/02/25 02:04:48;;;;;;;;;;;;;;;;;;4997547;28;19975;-67
2023/02/25 02:07:14;;;;;;;;;;;;;;;;;;4972379;28;19921;-67
2023/02/25 02:09:54;;;;;;;;;;;;;;;;;;4974941;28;20052;-68
2023/02/25 02:12:20;;;;;;;;;;;;;;;;;;4978277;28;19951;-67
2023/02/25 02:14:45;;;;;;;;;;;;;;;;;;4981617;28;20357;-67
2023/02/25 02:17:10;;;;;;;;;;;;;;;;;;4976140;28;19922;-68
2023/02/25 02:19:36;;;;;;;;;;;;;;;;;;4975533;28;20448;-67
2023/02/25 02:22:03;;;;;;;;;;;;;;;;;;4998022;28;19999;-67
2023/02/25 02:24:28;;;;;;;;;;;;;;;;;;4995247;28;20031;-67
2023/02/25 02:30:10;;;;;;;;;;;;;;;;;;4998264;28;19980;-66
2023/02/25 02:32:38;;;;;;;;;;;;;;;;;;4995821;28;19921;-66
2023/02/25 02:35:03;;;;;;;;;;;;;;;;;;4974326;28;19922;-67
2023/02/25 02:37:34;;;;;;;;;;;;;;;;;;4979851;28;20423;-69
2023/02/25 02:39:59;;;;;;;;;;;;;;;;;;4973736;28;19929;-67
2023/02/25 02:42:27;;;;;;;;;;;;;;;;;;4939113;28;19952;-67
2023/02/25 02:44:53;;;;;;;;;;;;;;;;;;4962540;28;20012;-67
2023/02/25 02:47:18;;;;;;;;;;;;;;;;;;4958053;28;19921;-68
2023/02/25 02:49:43;;;;;;;;;;;;;;;;;;4955943;28;19929;-67
2023/02/25 02:52:14;;;;;;;;;;;;;;;;;;4982186;28;19975;-67
2023/02/25 02:54:39;;;;;;;;;;;;;;;;;;4965508;28;20375;-67
2023/02/25 02:57:04;;;;;;;;;;;;;;;;;;4983871;28;20408;-66
2023/02/25 02:59:29;;;;;;;;;;;;;;;;;;4983271;28;20004;-67
2023/02/25 03:01:57;;;;;;;;;;;;;;;;;;4973519;28;19924;-66
2023/02/25 03:04:25;;;;;;;;;;;;;;;;;;4973934;28;19932;-66
2023/02/25 03:06:50;;;;;;;;;;;;;;;;;;4974187;28;20013;-66
2023/02/25 03:09:16;;;;;;;;;;;;;;;;;;4972814;28;19925;-66
2023/02/25 03:11:41;;;;;;;;;;;;;;;;;;4960948;28;20205;-66
2023/02/25 03:14:09;;;;;;;;;;;;;;;;;;4992355;28;20467;-68
2023/02/25 03:16:35;;;;;;;;;;;;;;;;;;4976023;28;19921;-66
2023/02/25 03:19:00;;;;;;;;;;;;;;;;;;4980290;28;19924;-68
2023/02/25 03:21:25;;;;;;;;;;;;;;;;;;4994328;28;19921;-68
2023/02/25 03:23:53;;;;;;;;;;;;;;;;;;4997679;28;20242;-68
2023/02/25 03:26:21;;;;;;;;;;;;;;;;;;4976068;28;20220;-66
2023/02/25 03:28:46;;;;;;;;;;;;;;;;;;4973006;28;19925;-67
2023/02/25 03:31:11;;;;;;;;;;;;;;;;;;4995935;28;19921;-68
2023/02/25 03:33:55;;;;;;;;;;;;;;;;;;4976039;28;19975;-68
2023/02/25 03:36:32;;;;;;;;;;;;;;;;;;4973705;28;19992;-68
2023/02/25 03:38:57;;;;;;;;;;;;;;;;;;4975778;28;19931;-66
2023/02/25 03:41:28;;;;;;;;;;;;;;;;;;4976910;28;19952;-67
2023/02/25 03:43:53;;;;;;;;;;;;;;;;;;4964609;28;20297;-67
2023/02/25 03:46:18;;;;;;;;;;;;;;;;;;4994696;28;19921;-67
2023/02/25 03:48:44;;;;;;;;;;;;;;;;;;4975542;28;19952;-67
2023/02/25 03:51:09;;;;;;;;;;;;;;;;;;4955519;28;20300;-67
2023/02/25 03:53:37;;;;;;;;;;;;;;;;;;4961378;28;20280;-67
2023/02/25 03:56:04;;;;;;;;;;;;;;;;;;4984316;28;19956;-67
2023/02/25 03:58:32;;;;;;;;;;;;;;;;;;4996776;28;21532;-66
2023/02/25 04:00:57;;;;;;;;;;;;;;;;;;4977076;28;19929;-66
2023/02/25 04:03:27;;;;;;;;;;;;;;;;;;4991848;28;20056;-66
2023/02/25 04:05:52;;;;;;;;;;;;;;;;;;4964260;28;19928;-66
2023/02/25 04:08:18;;;;;;;;;;;;;;;;;;4979082;28;19924;-66
2023/02/25 04:10:46;;;;;;;;;;;;;;;;;;4977421;28;19964;-67
2023/02/25 04:13:14;;;;;;;;;;;;;;;;;;4966310;28;20446;-66
2023/02/25 04:15:46;;;;;;;;;;;;;;;;;;4953574;28;20051;-66
2023/02/25 04:18:13;;;;;;;;;;;;;;;;;;4960934;28;19956;-66
2023/02/25 04:20:39;;;;;;;;;;;;;;;;;;4956339;28;19953;-65
2023/02/25 04:23:05;;;;;;;;;;;;;;;;;;4966714;28;19917;-66
2023/02/25 04:25:32;;;;;;;;;;;;;;;;;;4988550;28;19976;-65
2023/02/25 04:27:57;;;;;;;;;;;;;;;;;;4953842;28;20055;-66
2023/02/25 04:30:23;;;;;;;;;;;;;;;;;;4977738;28;19925;-67
2023/02/25 04:32:53;;;;;;;;;;;;;;;;;;4996168;28;19918;-66
2023/02/25 04:35:18;;;;;;;;;;;;;;;;;;4980700;28;19921;-67
2023/02/25 04:37:44;;;;;;;;;;;;;;;;;;4962227;28;21277;-67
2023/02/25 04:40:12;;;;;;;;;;;;;;;;;;4966962;28;19933;-67
2023/02/25 04:42:37;;;;;;;;;;;;;;;;;;4957030;28;20028;-67
2023/02/25 04:45:03;;;;;;;;;;;;;;;;;;4971362;28;19923;-67
2023/02/25 04:47:28;;;;;;;;;;;;;;;;;;4979828;28;20447;-67
2023/02/25 04:49:54;;;;;;;;;;;;;;;;;;4980504;28;19956;-66
2023/02/25 04:52:19;;;;;;;;;;;;;;;;;;4999362;28;19969;-68
2023/02/25 04:54:44;;;;;;;;;;;;;;;;;;4980215;28;20044;-66
2023/02/25 04:57:09;;;;;;;;;;;;;;;;;;4978353;28;19947;-66
2023/02/25 04:59:35;;;;;;;;;;;;;;;;;;4995738;28;20117;-66
2023/02/25 05:02:00;;;;;;;;;;;;;;;;;;4973136;28;19972;-67
2023/02/25 05:04:28;;;;;;;;;;;;;;;;;;4991890;28;19924;-67
2023/02/25 05:06:57;;;;;;;;;;;;;;;;;;4972610;28;19936;-68
2023/02/25 05:09:22;;;;;;;;;;;;;;;;;;4997490;28;19924;-67
2023/02/25 05:11:47;;;;;;;;;;;;;;;;;;4979140;28;20491;-68
2023/02/25 05:14:12;;;;;;;;;;;;;;;;;;4981331;28;19917;-67
2023/02/25 05:16:38;;;;;;;;;;;;;;;;;;4997437;28;19944;-66
2023/02/25 05:19:06;;;;;;;;;;;;;;;;;;4978748;28;19919;-66
2023/02/25 05:21:34;;;;;;;;;;;;;;;;;;4987978;28;19984;-66
2023/02/25 05:24:01;;;;;;;;;;;;;;;;;;4964298;28;19921;-66
2023/02/25 05:26:27;;;;;;;;;;;;;;;;;;4968785;28;19925;-67
2023/02/25 05:28:52;;;;;;;;;;;;;;;;;;4959499;28;19999;-67
2023/02/25 05:31:17;;;;;;;;;;;;;;;;;;4955655;28;20061;-67
2023/02/25 05:33:43;;;;;;;;;;;;;;;;;;4970695;28;20848;-66
2023/02/25 05:36:08;;;;;;;;;;;;;;;;;;4983118;28;20404;-65
2023/02/25 05:38:34;;;;;;;;;;;;;;;;;;4946808;28;19921;-66
2023/02/25 05:44:15;;;;;;;;;;;;;;;;;;4998141;28;19944;-66
2023/02/25 05:46:40;;;;;;;;;;;;;;;;;;4995032;28;20653;-66
2023/02/25 05:49:06;;;;;;;;;;;;;;;;;;4997925;28;19948;-68
2023/02/25 05:51:31;;;;;;;;;;;;;;;;;;4980546;28;20016;-66
2023/02/25 05:53:59;;;;;;;;;;;;;;;;;;4963762;28;20509;-67
2023/02/25 05:56:26;;;;;;;;;;;;;;;;;;4983460;28;20626;-66
2023/02/25 05:58:51;;;;;;;;;;;;;;;;;;4976508;28;20021;-66
2023/02/25 06:01:21;;;;;;;;;;;;;;;;;;4961499;28;20581;-65
2023/02/25 06:03:49;;;;;;;;;;;;;;;;;;4979153;28;19921;-66
2023/02/25 06:06:14;;;;;;;;;;;;;;;;;;4978121;28;19921;-66
2023/02/25 06:08:39;;;;;;;;;;;;;;;;;;4977749;28;19922;-66
2023/02/25 06:11:05;;;;;;;;;;;;;;;;;;4976889;28;20019;-66
2023/02/25 06:13:32;;;;;;;;;;;;;;;;;;4978543;28;19917;-67
2023/02/25 06:15:58;;;;;;;;;;;;;;;;;;4978445;28;20015;-66
2023/02/25 06:18:23;;;;;;;;;;;;;;;;;;4992439;28;19921;-69
2023/02/25 06:20:51;;;;;;;;;;;;;;;;;;4997423;28;19955;-68
2023/02/25 06:23:19;;;;;;;;;;;;;;;;;;4980616;28;19921;-69
2023/02/25 06:25:45;;;;;;;;;;;;;;;;;;4998181;28;20557;-70
2023/02/25 06:28:10;;;;;;;;;;;;;;;;;;4978587;28;20841;-69
2023/02/25 06:30:36;;;;;;;;;;;;;;;;;;4993117;28;19921;-69
2023/02/25 06:33:01;;;;;;;;;;;;;;;;;;4972504;28;20328;-69
2023/02/25 06:35:26;;;;;;;;;;;;;;;;;;4996851;28;19928;-68
2023/02/25 06:37:51;;;;;;;;;;;;;;;;;;4974259;28;20008;-68
2023/02/25 06:40:17;;;;;;;;;;;;;;;;;;4994810;28;19929;-68
2023/02/25 06:42:44;;;;;;;;;;;;;;;;;;4941750;28;19928;-67
2023/02/25 06:45:12;;;;;;;;;;;;;;;;;;4978309;28;19928;-67
2023/02/25 06:47:37;;;;;;;;;;;;;;;;;;4943304;28;19917;-67
2023/02/25 06:50:02;;;;;;;;;;;;;;;;;;4971496;28;20666;-66
2023/02/25 06:52:30;;;;;;;;;;;;;;;;;;4959749;28;20020;-66
2023/02/25 06:54:56;;;;;;;;;;;;;;;;;;4962394;28;20004;-66
2023/02/25 06:57:21;;;;;;;;;;;;;;;;;;4965274;28;19921;-66
2023/02/25 06:59:49;;;;;;;;;;;;;;;;;;4945680;28;20488;-66
2023/02/25 07:02:17;;;;;;;;;;;;;;;;;;4974395;28;19930;-66
2023/02/25 07:04:44;;;;;;;;;;;;;;;;;;4980745;28;19927;-66
2023/02/25 07:07:10;;;;;;;;;;;;;;;;;;4978725;28;20608;-65
2023/02/25 07:09:40;;;;;;;;;;;;;;;;;;4997767;28;19991;-65
2023/02/25 07:12:08;;;;;;;;;;;;;;;;;;4981938;28;19921;-65
2023/02/25 07:14:33;;;;;;;;;;;;;;;;;;4994622;28;20384;-65
2023/02/25 07:16:59;;;;;;;;;;;;;;;;;;4975374;28;19928;-65
2023/02/25 07:19:24;;;;;;;;;;;;;;;;;;4996225;28;19996;-65
2023/02/25 07:21:49;;;;;;;;;;;;;;;;;;4994491;28;19921;-66
2023/02/25 07:24:16;;;;;;;;;;;;;;;;;;4994039;28;20111;-66
2023/02/25 07:26:41;;;;;;;;;;;;;;;;;;4995634;28;19924;-66
2023/02/25 07:29:06;;;;;;;;;;;;;;;;;;4996875;28;20039;-64
2023/02/25 07:31:32;;;;;;;;;;;;;;;;;;4957419;28;19975;-66
2023/02/25 07:34:02;;;;;;;;;;;;;;;;;;4998670;28;19927;-66
2023/02/25 07:36:29;;;;;;;;;;;;;;;;;;4969506;28;19921;-66
2023/02/25 07:38:57;;;;;;;;;;;;;;;;;;4983000;28;19935;-66
2023/02/25 07:41:23;;;;;;;;;;;;;;;;;;4998290;28;19921;-66
2023/02/25 07:43:48;;;;;;;;;;;;;;;;;;4976116;28;19921;-65
2023/02/25 07:46:13;;;;;;;;;;;;;;;;;;4964280;28;19924;-65
2023/02/25 07:48:39;;;;;;;;;;;;;;;;;;4991437;28;19929;-65
2023/02/25 07:51:07;;;;;;;;;;;;;;;;;;4960256;28;20047;-65
2023/02/25 07:53:34;;;;;;;;;;;;;;;;;;4976770;28;19917;-64
2023/02/25 07:56:00;;;;;;;;;;;;;;;;;;4986380;28;19924;-65
2023/02/25 07:58:27;;;;;;;;;;;;;;;;;;4978404;28;20269;-65
2023/02/25 08:00:53;;;;;;;;;;;;;;;;;;4978972;28;19925;-65
2023/02/25 08:03:18;;;;;;;;;;;;;;;;;;4994543;28;19975;-66
2023/02/25 08:05:43;;;;;;;;;;;;;;;;;;4982259;28;19956;-64
2023/02/25 08:08:12;;;;;;;;;;;;;;;;;;4963688;28;20016;-65
2023/02/25 08:10:37;;;;;;;;;;;;;;;;;;4942272;28;20647;-63
2023/02/25 08:13:02;;;;;;;;;;;;;;;;;;4977550;28;19921;-64
2023/02/25 08:15:28;;;;;;;;;;;;;;;;;;4980745;28;19928;-65
2023/02/25 08:17:54;;;;;;;;;;;;;;;;;;4961832;28;19961;-65
2023/02/25 08:20:20;;;;;;;;;;;;;;;;;;4957779;28;19917;-64
2023/02/25 08:22:45;;;;;;;;;;;;;;;;;;4979340;28;19972;-65
2023/02/25 08:25:11;;;;;;;;;;;;;;;;;;4992411;28;19917;-65
2023/02/25 08:27:36;;;;;;;;;;;;;;;;;;4994073;28;20485;-66
2023/02/25 08:30:01;;;;;;;;;;;;;;;;;;4973026;28;20120;-65
2023/02/25 08:32:27;;;;;;;;;;;;;;;;;;4977714;28;19928;-65
2023/02/25 08:34:55;;;;;;;;;;;;;;;;;;4967869;28;20047;-64
2023/02/25 08:37:21;;;;;;;;;;;;;;;;;;4970822;28;19924;-63
2023/02/25 08:39:46;;;;;;;;;;;;;;;;;;4961002;28;19984;-65
2023/02/25 08:42:13;;;;;;;;;;;;;;;;;;4958495;28;19916;-66
2023/02/25 08:44:38;;;;;;;;;;;;;;;;;;4984622;28;19921;-67
2023/02/25 08:47:06;;;;;;;;;;;;;;;;;;4980510;28;20237;-65
2023/02/25 08:52:22;;;;;;;;;;;;;;;;;;4996474;28;19980;-64
2023/02/25 08:58:06;;;;;;;;;;;;;;;;;;4994286;28;19970;-64
2023/02/25 09:00:32;;;;;;;;;;;;;;;;;;4997718;28;20038;-67
2023/02/25 09:02:57;;;;;;;;;;;;;;;;;;4975538;28;20808;-65
2023/02/25 09:05:23;;;;;;;;;;;;;;;;;;4962878;28;19927;-64
2023/02/25 09:07:51;;;;;;;;;;;;;;;;;;4970765;28;19928;-64
2023/02/25 09:10:16;;;;;;;;;;;;;;;;;;4991071;28;19925;-64
2023/02/25 09:12:43;;;;;;;;;;;;;;;;;;4974318;28;20519;-64
2023/02/25 09:15:13;;;;;;;;;;;;;;;;;;4959405;28;19963;-65
2023/02/25 09:17:39;;;;;;;;;;;;;;;;;;4991140;28;19921;-64
2023/02/25 09:20:08;;;;;;;;;;;;;;;;;;4978588;28;20012;-65
2023/02/25 09:22:37;;;;;;;;;;;;;;;;;;4959681;28;19921;-65
2023/02/25 09:25:03;;;;;;;;;;;;;;;;;;4958541;28;20015;-63
2023/02/25 09:27:31;;;;;;;;;;;;;;;;;;4995027;28;20064;-64
2023/02/25 09:29:58;;;;;;;;;;;;;;;;;;4998103;28;19925;-65
2023/02/25 09:32:23;;;;;;;;;;;;;;;;;;4982332;28;19917;-64
2023/02/25 09:34:51;;;;;;;;;;;;;;;;;;4973772;28;19967;-64
2023/02/25 09:37:18;;;;;;;;;;;;;;;;;;4994132;28;20474;-65
2023/02/25 09:39:49;;;;;;;;;;;;;;;;;;4979426;28;19945;-65
2023/02/25 09:42:14;;;;;;;;;;;;;;;;;;4996401;28;19917;-66
2023/02/25 09:44:42;;;;;;;;;;;;;;;;;;4992854;28;20448;-66
2023/02/25 09:47:07;;;;;;;;;;;;;;;;;;4975433;28;19921;-66
2023/02/25 09:49:35;;;;;;;;;;;;;;;;;;4977657;28;19925;-64
2023/02/25 09:52:06;;;;;;;;;;;;;;;;;;4977321;28;20030;-66
2023/02/25 09:54:34;;;;;;;;;;;;;;;;;;4958732;28;20027;-66
2023/02/25 09:57:02;;;;;;;;;;;;;;;;;;4980234;28;19921;-66
2023/02/25 09:59:27;;;;;;;;;;;;;;;;;;4972949;28;19963;-65
2023/02/25 10:01:53;;;;;;;;;;;;;;;;;;4957803;28;20011;-67
2023/02/25 10:04:18;;;;;;;;;;;;;;;;;;4978646;28;19929;-68
2023/02/25 10:06:45;;;;;;;;;;;;;;;;;;4978060;28;20452;-66
2023/02/25 10:12:30;;;;;;;;;;;;;;;;;;4995169;28;19924;-67
2023/02/25 10:14:59;;;;;;;;;;;;;;;;;;4991680;28;19917;-67
2023/02/25 10:17:24;;;;;;;;;;;;;;;;;;4953251;28;20016;-66
2023/02/25 10:19:55;;;;;;;;;;;;;;;;;;4972680;28;19976;-67
2023/02/25 10:22:20;;;;;;;;;;;;;;;;;;4956840;28;20365;-68
2023/02/25 10:24:46;;;;;;;;;;;;;;;;;;4978022;28;20324;-67
2023/02/25 10:27:12;;;;;;;;;;;;;;;;;;4982777;28;19921;-66
2023/02/25 10:29:40;;;;;;;;;;;;;;;;;;4993771;28;21574;-67
2023/02/25 10:32:08;;;;;;;;;;;;;;;;;;4957938;28;21910;-67
2023/02/25 10:34:37;;;;;;;;;;;;;;;;;;4972451;28;19918;-65
2023/02/25 10:37:02;;;;;;;;;;;;;;;;;;4977342;28;19921;-67
2023/02/25 10:39:30;;;;;;;;;;;;;;;;;;4997569;28;19999;-68
2023/02/25 10:41:58;;;;;;;;;;;;;;;;;;4979670;28;20048;-70
2023/02/25 10:44:23;;;;;;;;;;;;;;;;;;4962415;28;19922;-67
2023/02/25 10:46:48;;;;;;;;;;;;;;;;;;4972350;28;20805;-68
2023/02/25 10:49:16;;;;;;;;;;;;;;;;;;4978272;28;20019;-70
2023/02/25 10:51:41;;;;;;;;;;;;;;;;;;4972319;28;19925;-69
2023/02/25 10:54:09;;;;;;;;;;;;;;;;;;4995702;28;19928;-67
2023/02/25 10:56:35;;;;;;;;;;;;;;;;;;4992692;28;19917;-68
2023/02/25 10:59:03;;;;;;;;;;;;;;;;;;4969341;28;19922;-66
2023/02/25 11:01:28;;;;;;;;;;;;;;;;;;4953976;28;19932;-69
2023/02/25 11:03:59;;;;;;;;;;;;;;;;;;4995512;28;19949;-67
2023/02/25 11:06:25;;;;;;;;;;;;;;;;;;4957334;28;20497;-70
2023/02/25 11:08:51;;;;;;;;;;;;;;;;;;4961636;28;19925;-70
2023/02/25 11:14:32;;;;;;;;;;;;;;;;;;4991125;28;19967;-69
2023/02/25 11:16:58;;;;;;;;;;;;;;;;;;4956939;28;19921;-69
2023/02/25 11:19:24;;;;;;;;;;;;;;;;;;4957268;28;19941;-67
2023/02/25 11:21:54;;;;;;;;;;;;;;;;;;4977683;28;19928;-68
2023/02/25 11:24:19;;;;;;;;;;;;;;;;;;4976643;28;19921;-68
2023/02/25 11:26:45;;;;;;;;;;;;;;;;;;4958066;28;19985;-69
2023/02/25 11:29:10;;;;;;;;;;;;;;;;;;4957921;28;19980;-69
2023/02/25 11:31:35;;;;;;;;;;;;;;;;;;4950949;28;20266;-69
2023/02/25 11:34:02;;;;;;;;;;;;;;;;;;4968887;28;19933;-69
2023/02/25 11:36:27;;;;;;;;;;;;;;;;;;4959266;28;19918;-68
2023/02/25 11:38:55;;;;;;;;;;;;;;;;;;4953307;28;19975;-68
2023/02/25 11:41:20;;;;;;;;;;;;;;;;;;4955939;28;20436;-68
2023/02/25 11:43:48;;;;;;;;;;;;;;;;;;4978245;28;19917;-68
2023/02/25 11:46:13;;;;;;;;;;;;;;;;;;4976700;28;19959;-68
2023/02/25 11:48:41;;;;;;;;;;;;;;;;;;4972361;28;20289;-67
2023/02/25 11:51:09;;;;;;;;;;;;;;;;;;4960108;28;20385;-68
2023/02/25 11:53:37;;;;;;;;;;;;;;;;;;4957292;28;19917;-69
2023/02/25 11:56:03;;;;;;;;;;;;;;;;;;4990232;28;19921;-71
2023/02/25 11:58:28;;;;;;;;;;;;;;;;;;4962537;28;20258;-69
2023/02/25 12:00:54;;;;;;;;;;;;;;;;;;4974744;28;19921;-69
2023/02/25 12:03:19;;;;;;;;;;;;;;;;;;4976279;28;19928;-70
2023/02/25 12:05:44;;;;;;;;;;;;;;;;;;4962871;28;20071;-69
2023/02/25 12:08:09;;;;;;;;;;;;;;;;;;4990050;28;20000;-70
2023/02/25 12:10:35;;;;;;;;;;;;;;;;;;4978026;28;21946;-69
2023/02/25 12:13:01;;;;;;;;;;;;;;;;;;4952507;28;19921;-69
2023/02/25 12:15:29;;;;;;;;;;;;;;;;;;4972043;28;19913;-68
2023/02/25 12:17:54;;;;;;;;;;;;;;;;;;4998169;28;19995;-68
2023/02/25 12:20:20;;;;;;;;;;;;;;;;;;4980682;28;19960;-70
2023/02/25 12:22:47;;;;;;;;;;;;;;;;;;4980111;28;20204;-70
2023/02/25 12:25:15;;;;;;;;;;;;;;;;;;4977839;28;20768;-72
2023/02/25 12:27:48;;;;;;;;;;;;;;;;;;4956067;28;19972;-71
2023/02/25 12:30:14;;;;;;;;;;;;;;;;;;4974817;28;20504;-70
2023/02/25 12:32:41;;;;;;;;;;;;;;;;;;4960138;28;20420;-70
2023/02/25 12:35:07;;;;;;;;;;;;;;;;;;4963909;28;19933;-70
2023/02/25 12:37:35;;;;;;;;;;;;;;;;;;4995237;28;19921;-69
2023/02/25 12:40:00;;;;;;;;;;;;;;;;;;4930221;28;1892041;-71
2023/02/25 12:42:29;;;;;;;;;;;;;;;;;;4979179;28;20016;-69
2023/02/25 12:44:55;;;;;;;;;;;;;;;;;;4975997;28;19921;-70
2023/02/25 12:47:24;;;;;;;;;;;;;;;;;;4976986;28;19952;-68
2023/02/25 12:49:49;;;;;;;;;;;;;;;;;;4980638;28;19925;-69
2023/02/25 12:52:15;;;;;;;;;;;;;;;;;;4979911;28;20131;-70
2023/02/25 12:54:40;;;;;;;;;;;;;;;;;;4996076;28;19921;-70
2023/02/25 12:57:08;;;;;;;;;;;;;;;;;;4993067;28;19921;-67
2023/02/25 12:59:33;;;;;;;;;;;;;;;;;;4963870;28;19972;-69
2023/02/25 13:02:02;;;;;;;;;;;;;;;;;;4977046;28;19943;-71
2023/02/25 13:04:28;;;;;;;;;;;;;;;;;;4961390;28;20524;-69
2023/02/25 13:06:56;;;;;;;;;;;;;;;;;;4955759;28;20159;-68
2023/02/25 13:09:21;;;;;;;;;;;;;;;;;;4964753;28;19925;-69
2023/02/25 13:11:48;;;;;;;;;;;;;;;;;;4985982;28;19917;-69
2023/02/25 13:14:16;;;;;;;;;;;;;;;;;;4980486;28;20202;-70
2023/02/25 13:16:41;;;;;;;;;;;;;;;;;;4979128;28;19921;-71
2023/02/25 13:19:07;;;;;;;;;;;;;;;;;;4980960;28;20032;-69
2023/02/25 13:21:32;;;;;;;;;;;;;;;;;;4999794;28;20385;-70
2023/02/25 13:24:00;;;;;;;;;;;;;;;;;;4975227;28;20051;-72
2023/02/25 13:26:26;;;;;;;;;;;;;;;;;;4982862;28;20337;-69
2023/02/25 13:28:57;;;;;;;;;;;;;;;;;;4975236;28;20291;-69
2023/02/25 13:31:22;;;;;;;;;;;;;;;;;;4978081;28;20424;-69
2023/02/25 13:33:47;;;;;;;;;;;;;;;;;;4994103;28;19921;-69
2023/02/25 13:36:15;;;;;;;;;;;;;;;;;;4976712;28;20894;-70
2023/02/25 13:38:43;;;;;;;;;;;;;;;;;;4960287;28;19925;-66
2023/02/25 13:44:27;;;;;;;;;;;;;;;;;;4979311;28;19992;-69
2023/02/25 13:46:53;;;;;;;;;;;;;;;;;;4976613;28;19985;-70
2023/02/25 13:49:21;;;;;;;;;;;;;;;;;;4963756;28;21605;-70
2023/02/25 13:51:49;;;;;;;;;;;;;;;;;;4955783;28;19933;-70
2023/02/25 13:54:15;;;;;;;;;;;;;;;;;;4958587;28;19921;-69
2023/02/25 13:56:42;;;;;;;;;;;;;;;;;;4961119;28;20337;-70
2023/02/25 13:59:09;;;;;;;;;;;;;;;;;;4962679;28;19922;-68
2023/02/25 14:01:35;;;;;;;;;;;;;;;;;;4943217;28;20899;-68
2023/02/25 14:04:00;;;;;;;;;;;;;;;;;;4964342;28;20002;-70
2023/02/25 14:06:29;;;;;;;;;;;;;;;;;;4961313;28;20032;-69
2023/02/25 14:09:12;;;;;;;;;;;;;;;;;;4944416;28;20044;-70
2023/02/25 14:11:37;;;;;;;;;;;;;;;;;;4947065;28;19925;-70
2023/02/25 14:14:05;;;;;;;;;;;;;;;;;;4956445;28;20247;-69
2023/02/25 14:16:30;;;;;;;;;;;;;;;;;;4955448;28;20473;-70
2023/02/25 14:18:55;;;;;;;;;;;;;;;;;;4977853;28;19921;-70
2023/02/25 14:21:23;;;;;;;;;;;;;;;;;;4974004;28;19928;-70
2023/02/25 14:23:48;;;;;;;;;;;;;;;;;;4962192;28;19921;-69
2023/02/25 14:26:15;;;;;;;;;;;;;;;;;;4957782;28;19944;-70
2023/02/25 14:28:40;;;;;;;;;;;;;;;;;;4957627;28;19925;-70
2023/02/25 14:31:05;;;;;;;;;;;;;;;;;;4977975;28;19976;-72
2023/02/25 14:33:33;;;;;;;;;;;;;;;;;;4958064;28;20325;-68
2023/02/25 14:35:59;;;;;;;;;;;;;;;;;;4937728;28;19922;-72
2023/02/25 14:38:24;;;;;;;;;;;;;;;;;;4949748;28;19917;-72
2023/02/25 14:40:52;;;;;;;;;;;;;;;;;;4977713;28;20048;-70
2023/02/25 14:43:17;;;;;;;;;;;;;;;;;;4966184;28;20360;-72
2023/02/25 14:45:46;;;;;;;;;;;;;;;;;;4975356;28;19990;-71
2023/02/25 14:48:11;;;;;;;;;;;;;;;;;;4957644;28;19929;-72
2023/02/25 14:50:39;;;;;;;;;;;;;;;;;;4976139;28;19931;-70
2023/02/25 14:53:06;;;;;;;;;;;;;;;;;;4976637;28;19922;-70
2023/02/25 14:55:32;;;;;;;;;;;;;;;;;;4973665;28;19944;-69
2023/02/25 14:57:57;;;;;;;;;;;;;;;;;;4994143;28;19917;-70
2023/02/25 15:00:22;;;;;;;;;;;;;;;;;;4982187;28;20400;-69
2023/02/25 15:02:51;;;;;;;;;;;;;;;;;;4976781;28;20573;-70
2023/02/25 15:05:16;;;;;;;;;;;;;;;;;;4978299;28;19921;-69
2023/02/25 15:07:41;;;;;;;;;;;;;;;;;;4981495;28;20002;-70
2023/02/25 15:10:09;;;;;;;;;;;;;;;;;;4972221;28;19921;-68
2023/02/25 15:12:35;;;;;;;;;;;;;;;;;;4980285;28;19924;-69
2023/02/25 15:15:02;;;;;;;;;;;;;;;;;;4996117;28;19928;-71
2023/02/25 15:17:30;;;;;;;;;;;;;;;;;;4998342;28;21291;-69
2023/02/25 15:19:57;;;;;;;;;;;;;;;;;;4966528;28;19921;-69
2023/02/25 15:22:23;;;;;;;;;;;;;;;;;;4979651;28;20019;-69
2023/02/25 15:24:48;;;;;;;;;;;;;;;;;;4977973;28;19990;-68
2023/02/25 15:27:16;;;;;;;;;;;;;;;;;;4956669;28;20446;-68
2023/02/25 15:29:44;;;;;;;;;;;;;;;;;;4989668;28;19925;-70
2023/02/25 15:32:09;;;;;;;;;;;;;;;;;;4972910;28;19964;-69
2023/02/25 15:34:35;;;;;;;;;;;;;;;;;;4978536;28;20354;-69
2023/02/25 15:37:03;;;;;;;;;;;;;;;;;;4963501;28;19926;-72
2023/02/25 15:39:28;;;;;;;;;;;;;;;;;;4969728;28;19926;-69
2023/02/25 15:41:53;;;;;;;;;;;;;;;;;;4973226;28;20264;-71
2023/02/25 15:44:22;;;;;;;;;;;;;;;;;;4944938;28;20541;-69
2023/02/25 15:46:47;;;;;;;;;;;;;;;;;;4955706;28;19918;-69
2023/02/25 15:49:12;;;;;;;;;;;;;;;;;;4945932;28;20302;-69
2023/02/25 15:51:40;;;;;;;;;;;;;;;;;;4941772;28;20000;-69
2023/02/25 15:54:11;;;;;;;;;;;;;;;;;;4960519;28;19921;-69
2023/02/25 15:56:38;;;;;;;;;;;;;;;;;;4966802;28;20052;-68
2023/02/25 15:59:06;;;;;;;;;;;;;;;;;;4950030;28;19917;-68
2023/02/25 16:01:34;;;;;;;;;;;;;;;;;;4949505;28;19922;-69
2023/02/25 16:04:02;;;;;;;;;;;;;;;;;;4982711;28;19924;-70
2023/02/25 16:06:27;;;;;;;;;;;;;;;;;;4964168;28;19992;-70
2023/02/25 16:08:53;;;;;;;;;;;;;;;;;;4980023;28;20538;-70
2023/02/25 16:11:20;;;;;;;;;;;;;;;;;;4983344;28;20053;-70
2023/02/25 16:13:48;;;;;;;;;;;;;;;;;;4951179;28;19917;-69
2023/02/25 16:16:15;;;;;;;;;;;;;;;;;;4960391;28;20032;-70
2023/02/25 16:18:46;;;;;;;;;;;;;;;;;;4949234;28;19921;-68
2023/02/25 16:21:14;;;;;;;;;;;;;;;;;;4965637;28;19921;-68
2023/02/25 16:23:39;;;;;;;;;;;;;;;;;;4981756;28;19917;-71
2023/02/25 16:26:05;;;;;;;;;;;;;;;;;;4963788;28;19932;-69
2023/02/25 16:28:30;;;;;;;;;;;;;;;;;;4953606;28;20031;-68
2023/02/25 16:30:55;;;;;;;;;;;;;;;;;;4951488;28;20080;-71
2023/02/25 16:33:21;;;;;;;;;;;;;;;;;;4935065;28;19961;-70
2023/02/25 16:35:46;;;;;;;;;;;;;;;;;;4950732;28;19944;-69
2023/02/25 16:38:14;;;;;;;;;;;;;;;;;;4953668;28;19922;-68
2023/02/25 16:40:42;;;;;;;;;;;;;;;;;;4948945;28;20673;-70
2023/02/25 16:43:07;;;;;;;;;;;;;;;;;;4988742;28;19917;-69
2023/02/25 16:45:33;;;;;;;;;;;;;;;;;;4955821;28;19925;-69
2023/02/25 16:47:58;;;;;;;;;;;;;;;;;;4979806;28;19927;-68
2023/02/25 16:50:23;;;;;;;;;;;;;;;;;;4967266;28;20153;-70
2023/02/25 16:52:52;;;;;;;;;;;;;;;;;;4983358;28;19932;-68
2023/02/25 16:55:17;;;;;;;;;;;;;;;;;;5000553;28;19917;-69
2023/02/25 16:57:42;;;;;;;;;;;;;;;;;;4969384;28;21865;-69
2023/02/25 17:00:07;;;;;;;;;;;;;;;;;;4997047;28;19956;-69
2023/02/25 17:02:33;;;;;;;;;;;;;;;;;;4983781;28;19921;-70
2023/02/25 17:04:58;;;;;;;;;;;;;;;;;;4981374;28;20043;-68